Time;durP1;ratioP1;P1;durP2;ratioP2;P2;SDS_P1;SDS_P2;PMS_P1;PMS_P2;Temp;Humidity;BMP_temperature;BMP_pressure;BME280_temperature;BME280_humidity;BME280_pressure;Samples;Min_cycle;Max_cycle;Signal;HPM_P1;HPM_P2
2023/07/04 00:00:48;;;;;;;8.82;1.30;;;;;;;;;;5035226;28;20471;-72
2023/07/04 00:03:14;;;;;;;10.32;1.30;;;;;;;;;;5036130;28;20033;-72
2023/07/04 00:05:46;;;;;;;116.30;71.05;;;;;;;;;;5042186;28;20029;-78
2023/07/04 00:08:12;;;;;;;;;;;12.50;99.90;;;;;;5036759;28;20030;-78
2023/07/04 00:10:38;;;;;;;9.90;3.08;;;;;;;;;;5035979;28;20070;-77
2023/07/04 00:13:04;;;;;;;12.75;2.63;;;;;;;;;;5034599;28;20108;-73
2023/07/04 00:15:30;;;;;;;9.20;1.77;;;;;;;;;;5034606;28;20132;-71
2023/07/04 00:17:56;;;;;;;5.97;1.27;;;;;;;;;;5037921;28;20105;-72
2023/07/04 00:20:22;;;;;;;3.78;1.13;;;;;;;;;;5031204;28;20036;-72
2023/07/04 00:22:48;;;;;;;8.88;1.58;;;;;;;;;;5040160;28;20041;-72
2023/07/04 00:25:14;;;;;;;9.75;1.52;;;;;;;;;;5041996;28;20033;-72
2023/07/04 00:27:40;;;;;;;6.43;1.10;;;;;;;;;;5037960;28;20133;-72
2023/07/04 00:30:08;;;;;;;6.85;1.52;;;;;;;;;;5037439;28;20091;-71
2023/07/04 00:32:34;;;;;;;9.63;1.80;;;;;;;;;;5043379;28;20035;-72
2023/07/04 00:35:02;;;;;;;6.18;1.42;;;;;;;;;;5043544;28;20458;-72
2023/07/04 00:37:29;;;;;;;7.50;1.30;;;;;;;;;;5041713;28;20053;-71
2023/07/04 00:39:56;;;;;;;7.97;1.42;;;;;;;;;;5042265;28;20033;-72
2023/07/04 00:42:22;;;;;;;7.50;1.23;;;;;;;;;;5037719;28;20387;-72
2023/07/04 00:44:55;;;;;;;7.45;1.20;;;;;;;;;;5047771;28;20040;-72
2023/07/04 00:47:32;;;;;;;9.20;1.42;;;;;;;;;;5040351;28;20041;-72
2023/07/04 00:50:07;;;;;;;7.18;0.80;;;;;;;;;;5040770;28;20025;-72
2023/07/04 00:52:34;;;;;;;9.88;2.15;;;;;;;;;;5039730;28;20086;-72
2023/07/04 00:55:07;;;;;;;5.22;1.17;;;;;;;;;;5036723;28;20037;-71
2023/07/04 00:57:34;;;;;;;7.63;1.48;;;;;;;;;;5040948;28;20033;-72
2023/07/04 01:00:13;;;;;;;4.07;1.20;;;;;;;;;;5046745;28;20077;-72
2023/07/04 01:02:39;;;;;;;2.83;1.15;;;;;;;;;;5037571;28;20077;-72
2023/07/04 01:05:05;;;;;;;5.82;1.52;;;;;;;;;;5045158;28;20102;-72
2023/07/04 01:07:31;;;;;;;7.28;1.20;;;;;;;;;;5043429;28;20025;-72
2023/07/04 01:10:05;;;;;;;3.45;0.98;;;;;;;;;;5031302;28;20033;-72
2023/07/04 01:12:31;;;;;;;2.72;1.10;;;;;;;;;;5040683;28;20013;-72
2023/07/04 01:14:59;;;;;;;8.27;1.10;;;;;;;;;;5042531;28;20485;-72
2023/07/04 01:17:26;;;;;;;5.55;1.30;;;;;;;;;;5052858;28;20044;-71
2023/07/04 01:19:52;;;;;;;5.03;1.27;;;;;;;;;;5036744;28;20037;-71
2023/07/04 01:22:38;;;;;;;4.53;1.40;;;;;;;;;;5052161;28;20037;-71
2023/07/04 01:25:10;;;;;;;10.18;1.60;;;;;;;;;;5033917;28;20073;-71
2023/07/04 01:27:40;;;;;;;6.30;1.48;;;;;;;;;;5047073;28;20108;-71
2023/07/04 01:30:07;;;;;;;6.72;1.50;;;;;;;;;;5054362;28;20020;-71
2023/07/04 01:32:34;;;;;;;5.43;1.23;;;;;;;;;;5051409;28;20539;-72
2023/07/04 01:35:00;;;;;;;3.25;1.20;;;;;;;;;;5031998;28;20029;-71
2023/07/04 01:37:30;;;;;;;6.78;1.33;;;;;;;;;;5039708;28;20041;-72
2023/07/04 01:40:00;;;;;;;4.63;1.50;;;;;;;;;;5043102;28;20045;-71
2023/07/04 01:42:31;;;;;;;6.63;1.45;;;;;;;;;;5033728;28;20493;-71
2023/07/04 01:44:58;;;;;;;6.25;1.42;;;;;;;;;;5041796;28;20033;-71
2023/07/04 01:47:24;;;;;;;5.90;1.40;;;;;;;;;;5035879;28;20045;-71
2023/07/04 01:49:50;;;;;;;4.93;1.25;;;;;;;;;;5035602;28;20034;-71
2023/07/04 01:52:16;;;;;;;3.65;1.38;;;;;;;;;;5034129;28;20027;-72
2023/07/04 01:54:42;;;;;;;4.15;1.38;;;;;;;;;;5043716;28;20056;-71
2023/07/04 01:57:10;;;;;;;7.18;1.75;;;;;;;;;;5038387;28;20038;-72
2023/07/04 01:59:36;;;;;;;5.15;1.25;;;;;;;;;;5043302;28;20049;-72
2023/07/04 02:02:02;;;;;;;8.13;1.70;;;;;;;;;;5038759;28;20037;-72
2023/07/04 02:04:28;;;;;;;4.47;1.67;;;;;;;;;;5034133;28;20112;-72
2023/07/04 02:06:54;;;;;;;7.50;1.75;;;;;;;;;;5046831;28;20471;-72
2023/07/04 02:09:21;;;;;;;7.10;1.40;;;;;;;;;;5045257;28;20055;-73
2023/07/04 02:11:47;;;;;;;5.70;1.40;;;;;;;;;;5039879;28;20039;-73
2023/07/04 02:14:14;;;;;;;6.82;1.88;;;;;;;;;;5047699;28;20040;-72
2023/07/04 02:16:40;;;;;;;4.15;1.33;;;;;;;;;;5038436;28;20033;-72
2023/07/04 02:19:06;;;;;;;4.63;1.50;;;;;;;;;;5037367;28;20497;-73
2023/07/04 02:21:32;;;;;;;10.07;1.35;;;;;;;;;;5030530;28;20035;-72
2023/07/04 02:23:58;;;;;;;3.92;1.15;;;;;;;;;;5050121;28;20024;-71
2023/07/04 02:26:24;;;;;;;9.93;1.60;;;;;;;;;;5037087;28;20060;-71
2023/07/04 02:28:50;;;;;;;4.35;1.00;;;;;;;;;;5035237;28;20394;-71
2023/07/04 02:31:16;;;;;;;8.77;1.63;;;;;;;;;;5044405;28;20391;-71
2023/07/04 02:33:42;;;;;;;4.15;1.20;;;;;;;;;;5043045;28;20475;-71
2023/07/04 02:36:11;;;;;;;3.67;1.13;;;;;;;;;;5049176;28;20145;-71
2023/07/04 02:38:38;;;;;;;4.40;0.88;;;;;;;;;;5035215;28;20029;-71
2023/07/04 02:41:04;;;;;;;4.10;0.98;;;;;;;;;;5049758;28;20109;-71
2023/07/04 02:43:30;;;;;;;1.67;0.80;;;;;;;;;;5036425;28;20067;-71
2023/07/04 02:45:56;;;;;;;2.78;0.70;;;;;;;;;;5042149;28;20033;-71
2023/07/04 02:48:24;;;;;;;1.95;0.57;;;;;;;;;;5039698;28;20458;-71
2023/07/04 02:50:50;;;;;;;5.57;1.15;;;;;;;;;;5039402;28;20100;-71
2023/07/04 02:53:21;;;;;;;4.43;0.65;;;;;;;;;;5035411;28;20395;-71
2023/07/04 02:55:47;;;;;;;2.35;0.80;;;;;;;;;;5041391;28;20091;-71
2023/07/04 02:58:13;;;;;;;3.05;0.65;;;;;;;;;;5041291;28;20029;-71
2023/07/04 03:00:39;;;;;;;5.30;0.80;;;;;;;;;;5036497;28;20053;-71
2023/07/04 03:03:05;;;;;;;5.00;1.02;;;;;;;;;;5048878;28;20060;-72
2023/07/04 03:05:31;;;;;;;2.75;0.95;;;;;;;;;;5044397;28;20033;-72
2023/07/04 03:07:57;;;;;;;4.38;0.80;;;;;;;;;;5040030;28;20028;-73
2023/07/04 03:10:23;;;;;;;1.83;0.68;;;;;;;;;;5038237;28;20402;-72
2023/07/04 03:12:49;;;;;;;3.67;0.70;;;;;;;;;;5040190;28;20048;-72
2023/07/04 03:15:15;;;;;;;2.13;0.63;;;;;;;;;;5037617;28;20140;-72
2023/07/04 03:17:42;;;;;;;4.65;0.70;;;;;;;;;;5043471;28;20037;-72
2023/07/04 03:20:09;;;;;;;4.93;0.80;;;;;;;;;;5034360;28;20104;-72
2023/07/04 03:22:35;;;;;;;3.58;1.08;;;;;;;;;;5039170;28;20044;-72
2023/07/04 03:25:02;;;;;;;5.10;0.70;;;;;;;;;;5036895;28;20056;-72
2023/07/04 03:27:28;;;;;;;3.65;1.17;;;;;;;;;;5031855;28;20037;-72
2023/07/04 03:29:54;;;;;;;3.35;1.17;;;;;;;;;;5039523;28;20022;-72
2023/07/04 03:32:20;;;;;;;4.88;1.15;;;;;;;;;;5046343;28;20506;-72
2023/07/04 03:34:47;;;;;;;3.75;0.98;;;;;;;;;;5037426;28;20037;-72
2023/07/04 03:37:13;;;;;;;8.55;1.10;;;;;;;;;;5039948;28;20051;-72
2023/07/04 03:39:39;;;;;;;4.22;1.10;;;;;;;;;;5036660;28;20025;-72
2023/07/04 03:42:06;;;;;;;2.30;0.85;;;;;;;;;;5040657;28;20033;-72
2023/07/04 03:44:32;;;;;;;3.55;1.15;;;;;;;;;;5042156;28;20030;-72
2023/07/04 03:46:58;;;;;;;3.53;0.85;;;;;;;;;;5051320;28;20108;-72
2023/07/04 03:49:24;;;;;;;3.80;1.10;;;;;;;;;;5037740;28;20108;-72
2023/07/04 03:51:50;;;;;;;7.10;1.00;;;;;;;;;;5028457;28;20029;-73
2023/07/04 03:54:17;;;;;;;5.50;1.15;;;;;;;;;;5042647;28;20098;-73
2023/07/04 03:56:43;;;;;;;4.05;1.13;;;;;;;;;;5035569;28;20117;-73
2023/07/04 03:59:09;;;;;;;5.68;1.10;;;;;;;;;;5038623;28;20148;-73
2023/07/04 04:01:35;;;;;;;4.47;1.25;;;;;;;;;;5038256;28;20078;-72
2023/07/04 04:04:01;;;;;;;6.25;1.63;;;;;;;;;;5037497;28;20091;-72
2023/07/04 04:06:27;;;;;;;5.22;1.17;;;;;;;;;;5032035;28;20536;-73
2023/07/04 04:08:53;;;;;;;3.70;1.08;;;;;;;;;;5036620;28;20041;-72
2023/07/04 04:11:19;;;;;;;5.15;1.25;;;;;;;;;;5036165;28;20131;-73
2023/07/04 04:13:45;;;;;;;5.05;1.20;;;;;;;;;;5042489;28;20061;-72
2023/07/04 04:16:11;;;;;;;6.25;1.30;;;;;;;;;;5036375;28;20045;-72
2023/07/04 04:18:37;;;;;;;5.95;1.10;;;;;;;;;;5040206;28;20516;-72
2023/07/04 04:21:03;;;;;;;5.05;1.25;;;;;;;;;;5048475;28;20074;-72
2023/07/04 04:23:29;;;;;;;7.10;1.10;;;;;;;;;;5050461;28;20114;-72
2023/07/04 04:25:57;;;;;;;5.57;1.30;;;;;;;;;;5054055;28;20041;-72
2023/07/04 04:28:24;;;;;;;7.57;1.23;;;;;;;;;;5037409;28;20041;-72
2023/07/04 04:30:50;;;;;;;4.53;0.93;;;;;;;;;;5066689;28;20048;-72
2023/07/04 04:33:16;;;;;;;7.18;1.40;;;;;;;;;;5048654;28;20451;-72
2023/07/04 04:35:45;;;;;;;4.13;1.40;;;;;;;;;;5050563;28;20127;-72
2023/07/04 04:38:11;;;;;;;4.35;1.20;;;;;;;;;;5057620;28;20022;-72
2023/07/04 04:40:37;;;;;;;5.53;1.83;;;;;;;;;;5059646;28;20035;-73
2023/07/04 04:43:04;;;;;;;7.10;1.55;;;;;;;;;;5049558;28;20033;-72
2023/07/04 04:45:30;;;;;;;4.18;1.20;;;;;;;;;;5045141;28;20117;-72
2023/07/04 04:47:56;;;;;;;4.00;1.20;;;;;;;;;;5053001;28;20113;-72
2023/07/04 04:50:35;;;;;;;8.88;1.30;;;;;;;;;;5055171;28;20628;-72
2023/07/04 04:53:01;;;;;;;3.50;1.05;;;;;;;;;;5054959;28;20574;-72
2023/07/04 04:55:28;;;;;;;3.58;1.10;;;;;;;;;;5046716;28;21795;-72
2023/07/04 04:57:54;;;;;;;8.82;1.35;;;;;;;;;;5053858;28;20021;-73
2023/07/04 05:00:20;;;;;;;4.68;1.42;;;;;;;;;;5051530;28;20059;-72
2023/07/04 05:02:46;;;;;;;7.53;1.00;;;;;;;;;;5056497;28;20128;-73
2023/07/04 05:05:13;;;;;;;9.13;1.60;;;;;;;;;;5041979;28;20487;-71
2023/07/04 05:07:39;;;;;;;6.97;1.40;;;;;;;;;;5043172;28;20086;-75
2023/07/04 05:10:05;;;;;;;5.72;1.20;;;;;;;;;;5044067;28;20037;-74
2023/07/04 05:12:32;;;;;;;5.90;1.35;;;;;;;;;;5053562;28;20410;-75
2023/07/04 05:14:58;;;;;;;5.82;1.40;;;;;;;;;;5043193;28;20043;-75
2023/07/04 05:17:25;;;;;;;6.15;1.63;;;;;;;;;;5041426;28;20044;-73
2023/07/04 05:19:51;;;;;;;7.57;1.40;;;;;;;;;;5052535;28;20054;-75
2023/07/04 05:22:18;;;;;;;5.10;1.30;;;;;;;;;;5045814;28;20035;-75
2023/07/04 05:24:45;;;;;;;6.65;1.10;;;;;;;;;;5051041;28;20463;-75
2023/07/04 05:27:11;;;;;;;5.63;0.98;;;;;;;;;;5053105;28;20029;-74
2023/07/04 05:29:37;;;;;;;8.93;1.13;;;;;;;;;;5042199;28;20116;-74
2023/07/04 05:32:03;;;;;;;9.75;1.05;;;;;;;;;;5047455;28;20060;-74
2023/07/04 05:34:29;;;;;;;9.60;1.00;;;;;;;;;;5050307;28;20061;-73
2023/07/04 05:36:55;;;;;;;7.63;0.82;;;;;;;;;;5044509;28;20045;-71
2023/07/04 05:39:21;;;;;;;6.15;1.83;;;;;;;;;;5038672;28;20041;-74
2023/07/04 05:41:47;;;;;;;12.27;1.27;;;;;;;;;;5043093;28;20033;-75
2023/07/04 05:44:13;;;;;;;7.93;1.15;;;;;;;;;;5049913;28;20037;-75
2023/07/04 05:46:40;;;;;;;5.47;2.20;;;;;;;;;;5037809;28;20033;-72
2023/07/04 05:49:07;;;;;;;8.95;2.33;;;;;;;;;;5050095;28;20044;-72
2023/07/04 05:51:33;;;;;;;15.93;7.70;;;;;;;;;;5042646;28;20028;-72
2023/07/04 05:53:59;;;;;;;8.13;1.80;;;;;;;;;;5056948;28;20025;-76
2023/07/04 05:56:30;;;;;;;3.30;0.90;;;;;;;;;;5044745;28;20120;-75
2023/07/04 05:59:00;;;;;;;11.30;2.42;;;;;;;;;;5041158;28;20056;-76
2023/07/04 06:01:28;;;;;;;6.63;1.10;;;;;;;;;;5041393;28;20169;-76
2023/07/04 06:03:55;;;;;;;8.30;1.45;;;;;;;;;;5043854;28;20033;-76
2023/07/04 06:06:27;;;;;;;9.75;2.03;;;;;;;;;;5035488;28;20032;-76
2023/07/04 06:08:54;;;;;;;7.50;1.08;;;;;;;;;;5040219;28;20551;-77
2023/07/04 06:11:20;;;;;;;8.32;1.98;;;;;;;;;;5045278;28;20072;-77
2023/07/04 06:13:46;;;;;;;7.63;0.95;;;;;;;;;;5049152;28;20028;-76
2023/07/04 06:16:13;;;;;;;6.88;1.60;;;;;;;;;;5047188;28;20074;-74
2023/07/04 06:18:39;;;;;;;7.20;1.95;;;;;;;;;;5048603;28;20163;-71
2023/07/04 06:21:08;;;;;;;10.00;3.80;;;;;;;;;;5043510;28;20300;-72
2023/07/04 06:23:34;;;;;;;9.40;1.50;;;;;;;;;;5046135;28;20299;-75
2023/07/04 06:26:00;;;;;;;6.95;1.17;;;;;;;;;;5041640;28;20032;-73
2023/07/04 06:28:26;;;;;;;5.32;1.20;;;;;;;;;;5046796;28;20044;-74
2023/07/04 06:30:52;;;;;;;10.43;2.35;;;;;;;;;;5049472;28;20040;-74
2023/07/04 06:33:18;;;;;;;10.00;1.40;;;;;;;;;;5051612;28;20033;-74
2023/07/04 06:35:44;;;;;;;6.97;0.82;;;;;;;;;;5047510;28;20102;-74
2023/07/04 06:38:10;;;;;;;8.02;1.40;;;;;;;;;;5050089;28;20482;-74
2023/07/04 06:40:37;;;;;;;5.72;1.08;;;;;;;;;;5044012;28;20505;-74
2023/07/04 06:43:04;;;;;;;4.85;1.30;;;;;;;;;;5049497;28;20032;-75
2023/07/04 06:45:31;;;;;;;5.45;1.90;;;;;;;;;;5047390;28;20056;-74
2023/07/04 06:47:57;;;;;;;5.43;1.00;;;;;;;;;;5052604;28;20038;-74
2023/07/04 06:50:24;;;;;;;4.45;0.90;;;;;;;;;;5048457;28;20013;-74
2023/07/04 06:52:50;;;;;;;5.38;1.08;;;;;;;;;;5041489;28;20037;-74
2023/07/04 06:55:16;;;;;;;2.28;0.88;;;;;;;;;;5042030;28;20051;-74
2023/07/04 06:57:42;;;;;;;3.80;0.90;;;;;;;;;;5046099;28;20048;-75
2023/07/04 07:00:09;;;;;;;9.57;1.17;;;;;;;;;;5026509;28;20606;-74
2023/07/04 07:02:35;;;;;;;7.45;0.95;;;;;;;;;;5041794;28;20064;-74
2023/07/04 07:05:01;;;;;;;12.30;1.20;;;;;;;;;;5040282;28;22623;-74
2023/07/04 07:07:27;;;;;;;2.70;0.98;;;;;;;;;;5043538;28;20796;-76
2023/07/04 07:09:53;;;;;;;8.68;2.53;;;;;;;;;;5032166;28;20482;-74
2023/07/04 07:12:19;;;;;;;4.85;1.17;;;;;;;;;;5037283;28;20068;-74
2023/07/04 07:14:47;;;;;;;8.13;0.90;;;;;;;;;;5040760;28;20073;-73
2023/07/04 07:17:13;;;;;;;2.88;1.00;;;;;;;;;;5041144;28;20081;-73
2023/07/04 07:19:40;;;;;;;7.80;1.48;;;;;;;;;;5039732;28;20040;-74
2023/07/04 07:22:06;;;;;;;3.55;1.63;;;;;;;;;;5041511;28;20021;-72
2023/07/04 07:24:33;;;;;;;6.93;1.10;;;;;;;;;;5041267;28;20033;-72
2023/07/04 07:26:59;;;;;;;5.15;0.90;;;;;;;;;;5037431;28;20057;-72
2023/07/04 07:29:26;;;;;;;3.80;1.17;;;;;;;;;;5029325;28;20127;-75
2023/07/04 07:31:52;;;;;;;5.28;0.93;;;;;;;;;;5048043;28;20381;-74
2023/07/04 07:34:18;;;;;;;5.55;0.95;;;;;;;;;;5038757;28;20048;-74
2023/07/04 07:36:45;;;;;;;6.30;1.05;;;;;;;;;;5050286;28;20095;-74
2023/07/04 07:39:15;;;;;;;7.93;1.38;;;;;;;;;;5054798;28;20033;-74
2023/07/04 07:41:42;;;;;;;5.78;0.93;;;;;;;;;;5044423;28;20029;-74
2023/07/04 07:44:11;;;;;;;11.23;6.28;;;;;;;;;;5049851;28;20025;-77
2023/07/04 07:46:37;;;;;;;5.95;1.70;;;;;;;;;;5055198;28;20503;-77
2023/07/04 07:49:04;;;;;;;5.68;1.58;;;;;;;;;;5045376;28;20053;-74
2023/07/04 07:51:30;;;;;;;10.88;1.50;;;;;;;;;;5040440;28;20106;-74
2023/07/04 07:53:57;;;;;;;6.47;1.20;;;;;;;;;;5039151;28;20443;-74
2023/07/04 07:56:25;;;;;;;7.05;1.50;;;;;;;;;;5038880;28;20477;-75
2023/07/04 07:58:51;;;;;;;6.63;1.23;;;;;;;;;;5027303;28;20471;-75
2023/07/04 08:01:22;;;;;;;6.28;1.40;;;;;;;;;;5024590;28;20029;-74
2023/07/04 08:03:48;;;;;;;8.32;1.40;;;;;;;;;;5028111;28;20056;-73
2023/07/04 08:06:20;;;;;;;10.77;1.70;;;;;;;;;;5027960;28;20044;-73
2023/07/04 08:08:46;;;;;;;;;;;;;;;;;;5027921;28;20033;-72
2023/07/04 08:11:13;;;;;;;10.45;1.58;;;;;;;;;;5024089;28;19963;-72
2023/07/04 08:13:39;;;;;;;11.25;2.17;;;;;;;;;;5021041;28;20491;-73
2023/07/04 08:16:05;;;;;;;10.98;1.50;;;;;;;;;;5030142;28;20041;-72
2023/07/04 08:18:31;;;;;;;5.38;1.55;;;;;;;;;;5033784;28;20060;-74
2023/07/04 08:20:58;;;;;;;8.93;1.67;;;;;;;;;;5039347;28;20092;-75
2023/07/04 08:23:24;;;;;;;11.45;2.03;;;;;;;;;;5046425;28;20017;-73
2023/07/04 08:25:50;;;;;;;10.00;2.08;;;;;;;;;;5041817;28;20055;-73
2023/07/04 08:28:17;;;;;;;14.95;2.53;;;;;;;;;;5044376;28;20042;-74
2023/07/04 08:30:43;;;;;;;5.93;1.75;;;;;;;;;;5058285;28;20079;-72
2023/07/04 08:33:09;;;;;;;13.13;1.83;;;;;;;;;;5055496;28;20038;-72
2023/07/04 08:35:36;;;;;;;15.18;6.80;;;;;;;;;;5047983;28;20044;-72
2023/07/04 08:38:02;;;;;;;10.05;1.80;;;;;;;;;;5050605;28;20025;-71
2023/07/04 08:40:28;;;;;;;13.20;2.15;;;;;;;;;;5050494;28;20021;-72
2023/07/04 08:42:54;;;;;;;11.30;2.03;;;;;;;;;;5048203;28;20485;-72
2023/07/04 08:45:26;;;;;;;7.20;1.80;;;;;;;;;;5051906;28;20037;-73
2023/07/04 08:47:54;;;;;;;13.43;2.50;;;;;;;;;;5051922;28;20485;-72
2023/07/04 08:50:26;;;;;;;9.93;2.50;;;;;;;;;;5044524;28;20494;-73
2023/07/04 08:53:09;;;;;;;10.95;2.30;;;;;;;;;;5050037;28;20474;-72
2023/07/04 08:55:41;;;;;;;12.30;1.80;;;;;;;;;;5052246;28;20052;-72
2023/07/04 08:58:09;;;;;;;11.43;2.33;;;;;;;;;;5048102;28;20090;-72
2023/07/04 09:00:35;;;;;;;8.68;1.88;;;;;;;;;;5038177;28;20069;-72
2023/07/04 09:03:20;;;;;;;10.50;3.05;;;;;;;;;;5040505;28;20465;-72
2023/07/04 09:05:48;;;;;;;13.98;2.60;;;;;;;;;;5049484;28;20025;-72
2023/07/04 09:08:29;;;;;;;11.55;2.13;;;;;;;;;;5050593;28;20025;-72
2023/07/04 09:10:59;;;;;;;13.20;2.60;;;;;;;;;;5051365;28;20067;-72
2023/07/04 09:13:31;;;;;;;9.25;2.25;;;;;;;;;;5043024;28;20025;-72
2023/07/04 09:15:58;;;;;;;10.02;1.80;;;;;;;;;;5036936;28;20044;-72
2023/07/04 09:18:24;;;;;;;13.68;1.95;;;;;;;;;;5050991;28;20025;-72
2023/07/04 09:20:54;;;;;;;11.68;1.90;;;;;;;;;;5048699;28;20036;-73
2023/07/04 09:23:23;;;;;;;9.93;1.60;;;;;;;;;;5046978;28;20029;-72
2023/07/04 09:25:53;;;;;;;8.55;2.00;;;;;;;;;;5042063;28;20495;-72
2023/07/04 09:28:19;;;;;;;9.00;1.70;;;;;;;;;;5043474;28;21377;-70
2023/07/04 09:30:46;;;;;;;7.00;1.80;;;;;;;;;;5056266;28;20478;-73
2023/07/04 09:33:14;;;;;;;10.82;2.20;;;;;;;;;;5039714;28;20041;-73
2023/07/04 09:35:40;;;;;;;9.18;1.77;;;;;;;;;;5042320;28;20047;-74
2023/07/04 09:38:06;;;;;;;8.98;1.65;;;;;;;;;;5052382;28;20363;-74
2023/07/04 09:40:43;;;;;;;6.63;1.60;;;;;;;;;;5048846;28;20053;-74
2023/07/04 09:43:10;;;;;;;7.80;1.40;;;;;;;;;;5051066;28;20086;-73
2023/07/04 09:45:36;;;;;;;8.52;1.95;;;;;;;;;;5050102;28;20107;-74
2023/07/04 09:48:03;;;;;;;12.85;1.63;;;;;;;;;;5057357;28;20053;-74
2023/07/04 09:50:34;;;;;;;6.20;1.30;;;;;;;;;;5048738;28;20029;-74
2023/07/04 09:53:03;;;;;;;9.40;1.67;;;;;;;;;;5049200;28;20051;-73
2023/07/04 09:55:30;;;;;;;10.30;1.60;;;;;;;;;;5041801;28;20025;-72
2023/07/04 09:58:29;;;;;;;7.78;1.92;;;;;;;;;;5048651;28;20123;-73
2023/07/04 10:01:08;;;;;;;11.88;1.90;;;;;;;;;;5013398;28;20205;-74
2023/07/04 10:03:34;;;;;;;9.80;1.52;;;;;;;;;;5034580;28;20044;-74
2023/07/04 10:06:01;;;;;;;5.40;1.50;;;;;;;;;;5045756;28;20509;-73
2023/07/04 10:08:27;;;;;;;9.32;1.58;;;;;;;;;;5048422;28;20036;-73
2023/07/04 10:10:54;;;;;;;14.60;1.85;;;;;;;;;;5037490;28;20029;-74
2023/07/04 10:13:23;;;;;;;10.73;2.38;;;;;;;;;;5040134;28;20028;-74
2023/07/04 10:15:49;;;;;;;5.65;1.63;;;;;;;;;;5039991;28;20025;-75
2023/07/04 10:18:25;;;;;;;5.72;1.48;;;;;;;;;;5042900;28;20025;-73
2023/07/04 10:20:53;;;;;;;14.43;1.80;;;;;;;;;;5035689;28;20063;-74
2023/07/04 10:29:52;;;;;;;7.65;2.05;;;;;;;;;;5033815;28;20104;-73
2023/07/04 10:32:19;;;;;;;7.78;1.88;;;;;;;;;;5031962;28;20033;-76
2023/07/04 10:34:49;;;;;;;8.60;1.50;;;;;;;;;;5041069;28;20466;-75
2023/07/04 10:37:22;;;;;;;12.55;1.90;;;;;;;;;;5045395;28;20717;-74
2023/07/04 10:39:48;;;;;;;7.55;1.58;;;;;;;;;;5054774;28;20037;-73
2023/07/04 10:42:17;;;;;;;9.43;1.85;;;;;;;;;;5030939;28;20068;-77
2023/07/04 10:44:46;;;;;;;6.85;1.73;;;;;;;;;;5053709;28;20441;-73
2023/07/04 10:47:25;;;;;;;7.90;2.17;;;;;;;;;;5046884;28;20261;-74
2023/07/04 10:49:54;;;;;;;5.55;1.50;;;;;;;;;;5053650;28;20027;-74
2023/07/04 10:52:22;;;;;;;7.68;2.40;;;;;;;;;;5048538;28;20043;-74
2023/07/04 10:54:48;;;;;;;8.23;1.60;;;;;;;;;;5049638;28;20374;-73
2023/07/04 10:57:21;;;;;;;9.00;2.03;;;;;;;;;;5025411;28;20044;-72
2023/07/04 10:59:48;;;;;;;17.30;4.28;;;;;;;;;;5041290;28;20088;-73
2023/07/04 11:02:25;;;;;;;12.07;2.50;;;;;;;;;;5047172;28;20041;-73
2023/07/04 11:04:55;;;;;;;7.95;1.67;;;;;;;;;;5035349;28;20072;-73
2023/07/04 11:07:25;;;;;;;6.90;1.70;;;;;;;;;;5033411;28;20032;-73
2023/07/04 11:09:55;;;;;;;8.82;2.10;;;;;;;;;;5036492;28;20026;-72
2023/07/04 11:12:24;;;;;;;8.80;1.98;;;;;;;;;;5048579;28;20048;-73
2023/07/04 11:14:50;;;;;;;11.85;2.72;;;;;;;;;;5040217;28;20036;-72
2023/07/04 11:17:17;;;;;;;6.07;1.48;;;;;;;;;;5038556;28;20060;-73
2023/07/04 11:19:57;;;;;;;7.15;1.67;;;;;;;;;;5035450;28;20052;-72
2023/07/04 11:22:37;;;;;;;7.82;1.60;;;;;;;;;;5040028;28;20044;-72
2023/07/04 11:25:23;;;;;;;5.72;1.38;;;;;;;;;;5030211;28;20045;-72
2023/07/04 11:28:10;;;;;;;8.13;1.60;;;;;;;;;;5038738;28;20083;-72
2023/07/04 11:30:40;;;;;;;6.78;2.20;;;;;;;;;;5031519;28;20360;-73
2023/07/04 11:33:07;;;;;;;8.63;1.95;;;;;;;;;;5035308;28;20059;-73
2023/07/04 11:35:34;;;;;;;4.93;1.80;;;;;;;;;;5035791;28;20481;-72
2023/07/04 11:38:13;;;;;;;7.90;1.73;;;;;;;;;;5033775;28;20401;-72
2023/07/04 11:40:42;;;;;;;8.60;1.88;;;;;;;;;;5033037;28;20037;-73
2023/07/04 11:43:19;;;;;;;10.68;1.85;;;;;;;;;;5050365;28;20147;-73
2023/07/04 11:45:45;;;;;;;8.10;1.15;;;;;;;;;;5034169;28;20021;-73
2023/07/04 11:48:14;;;;;;;7.78;1.52;;;;;;;;;;5035610;28;20684;-72
2023/07/04 11:50:42;;;;;;;9.57;1.90;;;;;;;;;;5026648;28;20022;-72
2023/07/04 11:53:25;;;;;;;6.13;1.75;;;;;;;;;;5040264;28;20025;-73
2023/07/04 11:56:09;;;;;;;7.70;1.55;;;;;;;;;;5031075;28;20032;-73
2023/07/04 11:58:35;;;;;;;8.10;1.95;;;;;;;;;;5042392;28;20095;-73
2023/07/04 12:01:03;;;;;;;7.22;1.80;;;;;;;;;;5046485;28;20486;-73
2023/07/04 12:03:29;;;;;;;9.73;1.90;;;;;;;;;;5037406;28;20025;-73
2023/07/04 12:05:57;;;;;;;15.77;2.92;;;;;;;;;;5034919;28;20031;-73
2023/07/04 12:08:23;;;;;;;5.72;1.58;;;;;;;;;;5040466;28;20027;-72
2023/07/04 12:10:49;;;;;;;6.03;1.75;;;;;;;;;;5036983;28;20041;-73
2023/07/04 12:13:19;;;;;;;8.05;2.10;;;;;;;;;;5048957;28;20037;-73
2023/07/04 12:15:49;;;;;;;6.53;1.70;;;;;;;;;;5032456;28;20037;-73
2023/07/04 12:18:16;;;;;;;10.68;1.70;;;;;;;;;;5033605;28;20030;-73
2023/07/04 12:20:42;;;;;;;9.10;1.80;;;;;;;;;;5051394;28;20033;-73
2023/07/04 12:23:10;;;;;;;7.72;1.65;;;;;;;;;;5038118;28;20030;-72
2023/07/04 12:25:46;;;;;;;9.25;1.90;;;;;;;;;;5047072;28;20070;-72
2023/07/04 12:28:13;;;;;;;8.98;2.10;;;;;;;;;;5041961;28;20398;-73
2023/07/04 12:30:40;;;;;;;10.25;1.80;;;;;;;;;;5059742;28;20095;-73
2023/07/04 12:33:07;;;;;;;4.80;1.23;;;;;;;;;;5041023;28;20107;-73
2023/07/04 12:35:35;;;;;;;7.43;1.67;;;;;;;;;;5037682;28;20439;-72
2023/07/04 12:38:02;;;;;;;8.68;1.63;;;;;;;;;;5042065;28;20377;-72
2023/07/04 12:40:31;;;;;;;11.32;2.17;;;;;;;;;;5041782;28;20396;-73
2023/07/04 12:43:00;;;;;;;8.32;1.77;;;;;;;;;;5044074;28;20033;-72
2023/07/04 12:45:27;;;;;;;6.10;1.75;;;;;;;;;;5034795;28;20068;-73
2023/07/04 12:47:55;;;;;;;7.40;2.00;;;;;;;;;;5057734;28;20040;-73
2023/07/04 12:50:21;;;;;;;7.53;1.65;;;;;;;;;;5045444;28;20475;-73
2023/07/04 12:52:49;;;;;;;11.77;1.88;;;;;;;;;;5040115;28;20029;-72
2023/07/04 12:55:21;;;;;;;7.13;1.52;;;;;;;;;;5056179;28;20053;-73
2023/07/04 12:57:49;;;;;;;10.73;1.45;;;;;;;;;;5040640;28;20487;-73
2023/07/04 13:00:23;;;;;;;3.83;1.15;;;;;;;;;;5041950;28;20044;-73
2023/07/04 13:02:49;;;;;;;7.40;1.80;;;;;;;;;;5051970;28;20059;-72
2023/07/04 13:05:16;;;;;;;6.32;2.35;;;;;;;;;;5048684;28;20505;-73
2023/07/04 13:07:46;;;;;;;9.40;1.83;;;;;;;;;;5050541;28;20475;-72
2023/07/04 13:10:19;;;;;;;6.30;1.67;;;;;;;;;;5050640;28;20025;-73
2023/07/04 13:12:46;;;;;;;10.57;1.98;;;;;;;;;;5038169;28;20126;-72
2023/07/04 13:15:28;;;;;;;6.82;1.80;;;;;;;;;;5045269;28;20026;-72
2023/07/04 13:18:01;;;;;;;5.22;1.80;;;;;;;;;;5038913;28;20197;-72
2023/07/04 13:20:29;;;;;;;9.43;2.00;;;;;;;;;;5051421;28;20058;-72
2023/07/04 13:22:55;;;;;;;8.25;1.70;;;;;;;;;;5050372;28;20024;-72
2023/07/04 13:25:32;;;;;;;6.38;1.67;;;;;;;;;;5049656;28;20045;-72
2023/07/04 13:28:07;;;;;;;6.82;1.73;;;;;;;;;;5044204;28;20064;-72
2023/07/04 13:30:33;;;;;;;6.82;1.52;;;;;;;;;;5048643;28;20287;-72
2023/07/04 13:32:59;;;;;;;5.97;1.40;;;;;;;;;;5050573;28;20064;-72
2023/07/04 13:35:28;;;;;;;8.00;1.92;;;;;;;;;;5050987;28;20033;-72
2023/07/04 13:37:55;;;;;;;8.38;1.80;;;;;;;;;;5052202;28;20041;-73
2023/07/04 13:40:21;;;;;;;9.52;1.80;;;;;;;;;;5040103;28;20034;-72
2023/07/04 13:43:02;;;;;;;5.45;1.65;;;;;;;;;;5051445;28;20033;-72
2023/07/04 13:45:28;;;;;;;8.00;1.87;;;;;;;;;;5034503;28;20025;-72
2023/07/04 13:47:54;;;;;;;11.20;2.47;;;;;;;;;;5036877;28;20471;-73
2023/07/04 13:50:20;;;;;;;11.63;3.03;;;;;;;;;;5037646;28;20025;-73
2023/07/04 13:52:46;;;;;;;7.15;2.13;;;;;;;;;;5054320;28;20304;-74
2023/07/04 13:55:12;;;;;;;7.45;1.90;;;;;;;;;;5035789;28;20029;-81
2023/07/04 13:57:39;;;;;;;8.90;1.63;;;;;;;;;;5034583;28;20656;-79
2023/07/04 14:00:05;;;;;;;9.00;2.20;;;;;;;;;;5033220;28;20057;-79
2023/07/04 14:02:31;;;;;;;10.23;2.00;;;;;;;;;;5031171;28;23748;-77
2023/07/04 14:04:57;;;;;;;6.57;1.60;;;;;;;;;;5031587;28;20115;-79
2023/07/04 14:07:24;;;;;;;8.40;2.00;;;;;;;;;;5026319;28;20064;-76
2023/07/04 14:09:50;;;;;;;5.20;1.60;;;;;;;;;;5033960;28;20040;-75
2023/07/04 14:12:16;;;;;;;10.57;1.98;;;;;;;;;;5033837;28;20079;-76
2023/07/04 14:14:42;;;;;;;7.45;1.80;;;;;;;;;;5036303;28;20099;-76
2023/07/04 14:17:08;;;;;;;6.90;1.85;;;;;;;;;;5030422;28;20094;-76
2023/07/04 14:19:34;;;;;;;10.18;1.98;;;;;;;;;;5031091;28;20041;-76
2023/07/04 14:22:00;;;;;;;7.85;1.63;;;;;;;;;;5032821;28;20045;-76
2023/07/04 14:24:26;;;;;;;4.65;1.60;;;;;;;;;;5038466;28;20091;-75
2023/07/04 14:26:53;;;;;;;6.03;1.63;;;;;;;;;;5050240;28;20037;-78
2023/07/04 14:29:19;;;;;;;6.20;1.63;;;;;;;;;;5050405;28;20028;-78
2023/07/04 14:31:45;;;;;;;8.80;1.80;;;;;;;;;;5048901;28;20538;-78
2023/07/04 14:37:33;;;;;;;11.63;2.30;;;;;;;;;;5033772;28;20127;-72
2023/07/04 14:39:59;;;;;;;8.00;1.67;;;;;;;;;;5033588;28;20080;-73
2023/07/04 14:42:25;;;;;;;8.27;1.98;;;;;;;;;;5046028;28;20021;-75
2023/07/04 14:44:51;;;;;;;8.50;1.80;;;;;;;;;;5045456;28;20074;-75
2023/07/04 14:47:18;;;;;;;6.93;1.52;;;;;;;;;;5053123;28;20040;-74
2023/07/04 14:49:45;;;;;;;7.40;2.08;;;;;;;;;;5049487;28;20032;-76
2023/07/04 14:52:12;;;;;;;5.63;1.48;;;;;;;;;;5052388;28;20077;-75
2023/07/04 14:54:38;;;;;;;4.50;1.33;;;;;;;;;;5049216;28;20481;-75